createdAt,value
2022-09-21T00:01:11.729Z,102923.94
2022-09-21T00:03:41.340Z,102928.13
2022-09-21T00:06:14.728Z,102922.72
2022-09-21T00:08:42.123Z,102927.50
2022-09-21T00:11:12.822Z,102922.88
2022-09-21T00:13:39.956Z,102924.16
2022-09-21T00:16:08.737Z,102926.50
2022-09-21T00:18:36.158Z,102931.72
2022-09-21T00:21:09.273Z,102927.59
2022-09-21T00:23:36.527Z,102927.50
2022-09-21T00:26:15.437Z,102925.56
2022-09-21T00:28:43.808Z,102931.09
2022-09-21T00:31:13.202Z,102928.94
2022-09-21T00:33:41.223Z,102924.28
2022-09-21T00:36:10.345Z,102932.19
2022-09-21T00:38:37.779Z,102922.25
2022-09-21T00:41:06.292Z,102928.63
2022-09-21T00:43:35.737Z,102923.19
2022-09-21T00:46:06.861Z,102924.72
2022-09-21T00:48:33.991Z,102922.78
2022-09-21T00:51:06.366Z,102925.31
2022-09-21T00:53:33.412Z,102925.00
2022-09-21T00:56:02.863Z,102931.00
2022-09-21T00:58:36.950Z,102926.97
2022-09-21T01:01:03.628Z,102932.50
2022-09-21T01:03:31.361Z,102926.59
2022-09-21T01:05:58.084Z,102932.75
2022-09-21T01:08:27.118Z,102930.56
2022-09-21T01:11:18.714Z,102927.31
2022-09-21T01:13:58.123Z,102928.81
2022-09-21T01:16:53.251Z,102923.59
2022-09-21T01:19:34.866Z,102926.97
2022-09-21T01:22:45.460Z,102932.97
2022-09-21T01:25:15.095Z,102932.84
2022-09-21T01:27:44.405Z,102933.78
2022-09-21T01:30:14.500Z,102926.03
2022-09-21T01:32:44.558Z,102928.69
2022-09-21T01:35:18.954Z,102926.50
2022-09-21T01:37:50.860Z,102926.38
2022-09-21T01:40:43.275Z,102935.25
2022-09-21T01:43:14.541Z,102932.50
2022-09-21T01:45:52.126Z,102924.75
2022-09-21T01:48:21.954Z,102934.22
2022-09-21T01:50:55.564Z,102929.59
2022-09-21T01:53:32.629Z,102934.53
2022-09-21T01:56:10.288Z,102931.78
2022-09-21T01:58:52.458Z,102938.38
2022-09-21T02:01:24.496Z,102933.28
2022-09-21T02:04:05.831Z,102932.69
2022-09-21T02:06:32.706Z,102928.88
2022-09-21T02:08:59.443Z,102926.09
2022-09-21T02:11:26.401Z,102935.09
2022-09-21T02:13:55.096Z,102937.16
2022-09-21T02:16:40.227Z,102932.31
2022-09-21T02:19:12.549Z,102935.19
2022-09-21T02:21:57.756Z,102931.16
2022-09-21T02:24:47.374Z,102932.38
2022-09-21T02:27:22.830Z,102928.34
2022-09-21T02:29:56.775Z,102934.56
2022-09-21T02:32:37.967Z,102941.34
2022-09-21T02:35:17.266Z,102931.53
2022-09-21T02:37:56.735Z,102929.13
2022-09-21T02:40:34.935Z,102932.81
2022-09-21T02:43:26.136Z,102930.16
2022-09-21T02:45:59.270Z,102928.19
2022-09-21T02:48:39.536Z,102931.06
2022-09-21T02:51:14.765Z,102924.34
2022-09-21T02:53:43.367Z,102917.06
2022-09-21T02:56:13.161Z,102926.53
2022-09-21T02:58:50.345Z,102921.91
2022-09-21T03:01:19.102Z,102923.38
2022-09-21T03:03:45.725Z,102917.22
2022-09-21T03:06:12.450Z,102917.47
2022-09-21T03:08:39.007Z,102923.69
2022-09-21T03:11:05.976Z,102923.31
2022-09-21T03:13:32.645Z,102919.84
2022-09-21T03:16:05.268Z,102929.06
2022-09-21T03:18:32.779Z,102924.78
2022-09-21T03:21:00.364Z,102930.56
2022-09-21T03:23:27.044Z,102927.53
2022-09-21T03:25:54.697Z,102930.84
2022-09-21T03:28:22.198Z,102935.78
2022-09-21T03:30:50.441Z,102939.59
2022-09-21T03:33:21.274Z,102944.13
2022-09-21T03:35:51.644Z,102942.47
2022-09-21T03:38:21.582Z,102942.94
2022-09-21T03:40:49.380Z,102942.09
2022-09-21T03:43:16.436Z,102950.88
2022-09-21T03:45:44.171Z,102945.59
2022-09-21T03:48:11.576Z,102947.41
2022-09-21T03:50:38.861Z,102941.50
2022-09-21T03:53:05.860Z,102948.66
2022-09-21T03:55:33.235Z,102940.13
2022-09-21T03:57:59.849Z,102942.78
2022-09-21T04:00:26.873Z,102932.63
2022-09-21T04:02:53.615Z,102930.63
2022-09-21T04:05:20.914Z,102934.31
2022-09-21T04:07:47.632Z,102934.50
2022-09-21T04:10:17.820Z,102941.88
2022-09-21T04:12:45.532Z,102939.22
2022-09-21T04:15:13.758Z,102939.47
2022-09-21T04:17:41.083Z,102935.97
2022-09-21T04:20:09.017Z,102932.31
2022-09-21T04:22:43.378Z,102934.97
2022-09-21T04:25:12.194Z,102942.53
2022-09-21T04:27:38.702Z,102936.03
2022-09-21T04:30:06.529Z,102929.53
2022-09-21T04:32:33.342Z,102939.34
2022-09-21T04:34:59.887Z,102937.72
2022-09-21T04:37:26.536Z,102934.91
2022-09-21T04:39:53.437Z,102944.13
2022-09-21T04:42:19.971Z,102933.94
2022-09-21T04:44:46.439Z,102940.72
2022-09-21T04:47:12.954Z,102936.06
2022-09-21T04:49:39.465Z,102941.56
2022-09-21T04:52:06.070Z,102936.53
2022-09-21T04:54:32.697Z,102944.88
2022-09-21T04:56:59.462Z,102945.97
2022-09-21T04:59:26.090Z,102942.97
2022-09-21T05:01:52.536Z,102940.53
2022-09-21T05:04:19.166Z,102952.13
2022-09-21T05:06:45.692Z,102951.78
2022-09-21T05:09:30.364Z,102946.69
2022-09-21T05:11:56.924Z,102957.72
2022-09-21T05:14:23.387Z,102957.94
2022-09-21T05:16:49.868Z,102962.84
2022-09-21T05:19:17.324Z,102963.88
2022-09-21T05:21:44.031Z,102967.34
2022-09-21T05:24:10.500Z,102962.84
2022-09-21T05:26:37.371Z,102966.28
2022-09-21T05:29:04.605Z,102972.63
2022-09-21T05:31:40.081Z,102969.38
2022-09-21T05:34:12.701Z,102971.22
2022-09-21T05:36:42.204Z,102971.81
2022-09-21T05:39:09.038Z,102973.44
2022-09-21T05:41:35.928Z,102966.53
2022-09-21T05:44:02.801Z,102969.97
2022-09-21T05:46:38.348Z,102969.19
2022-09-21T05:49:34.287Z,102977.34
2022-09-21T05:52:16.576Z,102972.84
2022-09-21T05:54:49.271Z,102981.59
2022-09-21T05:57:15.658Z,102986.88
2022-09-21T06:00:07.968Z,102989.97
2022-09-21T06:02:59.468Z,102989.19
2022-09-21T06:05:26.249Z,102987.94
2022-09-21T06:07:52.805Z,102988.72
2022-09-21T06:10:19.319Z,102989.53
2022-09-21T06:12:46.127Z,102995.88
2022-09-21T06:15:16.509Z,102992.63
2022-09-21T06:17:43.428Z,103004.63
2022-09-21T06:20:10.743Z,102998.91
2022-09-21T06:22:37.419Z,102998.25
2022-09-21T06:25:04.079Z,103001.31
2022-09-21T06:27:30.825Z,102994.09
2022-09-21T06:29:57.383Z,102998.47
2022-09-21T06:32:24.796Z,103003.50
2022-09-21T06:34:51.307Z,103004.31
2022-09-21T06:37:18.038Z,103001.66
2022-09-21T06:39:44.552Z,103002.66
2022-09-21T06:42:11.062Z,102999.56
2022-09-21T06:44:37.759Z,103007.88
2022-09-21T06:47:04.648Z,103014.38
2022-09-21T06:49:31.131Z,103006.59
2022-09-21T06:51:58.238Z,103008.63
2022-09-21T06:54:24.910Z,103002.88
2022-09-21T06:56:51.453Z,103005.69
2022-09-21T06:59:17.878Z,103004.81
2022-09-21T07:01:44.648Z,103000.69
2022-09-21T07:04:11.312Z,103006.94
2022-09-21T07:06:37.798Z,103007.91
2022-09-21T07:11:51.483Z,103014.31
2022-09-21T07:14:18.058Z,103009.38
2022-09-21T07:16:44.981Z,103016.69
2022-09-21T07:19:12.199Z,103015.00
2022-09-21T07:21:39.347Z,103015.13
2022-09-21T07:24:11.016Z,103006.50
2022-09-21T07:26:39.583Z,103009.31
2022-09-21T07:29:06.546Z,103014.75
2022-09-21T07:31:33.160Z,103017.53
2022-09-21T07:33:59.845Z,103012.16
2022-09-21T07:36:26.760Z,103012.06
2022-09-21T07:38:54.116Z,103012.22
2022-09-21T07:41:20.998Z,103011.31
2022-09-21T07:43:47.636Z,103009.56
2022-09-21T07:46:15.136Z,103010.53
2022-09-21T07:48:42.130Z,103002.44
2022-09-21T07:51:11.370Z,103006.84
2022-09-21T07:53:40.159Z,103007.00
2022-09-21T07:56:09.216Z,102997.31
2022-09-21T07:58:55.744Z,102998.00
2022-09-21T08:01:22.942Z,103006.69
2022-09-21T08:03:51.459Z,103004.75
2022-09-21T08:06:19.679Z,103000.38
2022-09-21T08:08:48.135Z,102997.59
2022-09-21T08:11:22.382Z,102993.75
2022-09-21T08:13:52.923Z,102996.34
2022-09-21T08:16:19.590Z,102993.56
2022-09-21T08:18:46.320Z,102997.75
2022-09-21T08:21:13.499Z,103004.81
2022-09-21T08:23:40.591Z,102998.28
2022-09-21T08:26:08.027Z,103009.38
2022-09-21T08:28:38.158Z,103017.00
2022-09-21T08:31:08.347Z,103006.25
2022-09-21T08:33:35.346Z,103015.72
2022-09-21T08:36:03.256Z,103004.47
2022-09-21T08:38:40.054Z,103008.84
2022-09-21T08:41:48.834Z,103014.59
2022-09-21T08:44:21.373Z,103013.19
2022-09-21T08:47:04.097Z,103016.28
2022-09-21T08:49:42.283Z,103018.31
2022-09-21T08:52:16.973Z,103013.91
2022-09-21T08:55:02.827Z,103016.41
2022-09-21T08:57:31.946Z,103022.16
2022-09-21T09:00:00.279Z,103014.91
2022-09-21T09:02:40.843Z,103009.97
2022-09-21T09:05:26.811Z,103009.03
2022-09-21T09:08:39.686Z,103022.81
2022-09-21T09:11:42.007Z,103011.47
2022-09-21T09:14:53.225Z,103015.94
2022-09-21T09:17:26.594Z,103020.28
2022-09-21T09:20:04.261Z,103015.34
2022-09-21T09:22:38.318Z,103017.34
2022-09-21T09:25:21.125Z,103010.53
2022-09-21T09:27:54.964Z,103014.38
2022-09-21T09:30:28.663Z,103021.97
2022-09-21T09:33:16.348Z,103019.94
2022-09-21T09:35:49.031Z,103022.19
2022-09-21T09:38:29.224Z,103022.53
2022-09-21T09:41:41.210Z,103022.34
2022-09-21T09:44:29.780Z,103015.00
2022-09-21T09:47:08.461Z,103012.13
2022-09-21T09:49:49.994Z,103014.38
2022-09-21T09:52:17.248Z,103014.19
2022-09-21T09:54:45.271Z,103014.31
2022-09-21T09:57:14.289Z,103015.16
2022-09-21T09:59:56.228Z,103008.28
2022-09-21T10:02:33.703Z,103012.63
2022-09-21T10:05:10.724Z,103011.59
2022-09-21T10:07:51.105Z,103006.03
2022-09-21T10:10:32.931Z,103007.19
2022-09-21T10:13:05.284Z,103007.22
2022-09-21T10:15:32.804Z,103010.50
2022-09-21T10:18:15.870Z,103007.34
2022-09-21T10:20:54.825Z,103005.25
2022-09-21T10:23:23.239Z,102999.41
2022-09-21T10:26:00.408Z,103003.50
2022-09-21T10:28:28.108Z,102998.97
2022-09-21T10:31:18.211Z,103008.13
2022-09-21T10:33:52.038Z,103005.44
2022-09-21T10:36:27.752Z,103004.44
2022-09-21T10:38:54.330Z,102999.38
2022-09-21T10:41:21.628Z,102996.25
2022-09-21T10:43:50.783Z,103000.25
2022-09-21T10:46:18.124Z,102990.34
2022-09-21T10:48:46.909Z,102998.69
2022-09-21T10:51:29.143Z,102990.34
2022-09-21T10:53:56.466Z,102994.41
2022-09-21T10:56:25.195Z,102993.06
2022-09-21T10:59:33.712Z,102992.56
2022-09-21T11:02:02.227Z,102989.88
2022-09-21T11:04:39.020Z,102984.81
2022-09-21T11:07:09.978Z,102992.84
2022-09-21T11:09:48.492Z,102992.34
2022-09-21T11:12:38.164Z,102976.78
2022-09-21T11:15:33.995Z,102985.09
2022-09-21T11:18:16.492Z,102988.84
2022-09-21T11:20:53.351Z,102977.84
2022-09-21T11:23:29.247Z,102971.97
2022-09-21T11:26:06.295Z,102972.50
2022-09-21T11:28:44.130Z,102966.63
2022-09-21T11:31:17.032Z,102971.47
2022-09-21T11:34:02.972Z,102969.84
2022-09-21T11:36:42.773Z,102959.41
2022-09-21T11:39:16.766Z,102962.09
2022-09-21T11:41:55.932Z,102961.03
2022-09-21T11:44:55.078Z,102957.53
2022-09-21T11:47:51.595Z,102960.22
2022-09-21T11:50:48.581Z,102964.19
2022-09-21T11:53:28.948Z,102960.44
2022-09-21T11:56:02.989Z,102956.41
2022-09-21T11:58:40.777Z,102956.63
2022-09-21T12:01:28.837Z,102945.59
2022-09-21T12:04:27.911Z,102943.13
2022-09-21T12:06:57.207Z,102932.34
2022-09-21T12:10:00.140Z,102926.69
2022-09-21T12:12:37.503Z,102935.78
2022-09-21T12:15:18.935Z,102930.38
2022-09-21T12:18:10.587Z,102929.03
2022-09-21T12:21:06.991Z,102931.19
2022-09-21T12:23:42.514Z,102927.94
2022-09-21T12:26:13.278Z,102931.13
2022-09-21T12:28:48.883Z,102923.84
2022-09-21T12:31:33.454Z,102927.03
2022-09-21T12:34:09.952Z,102924.28
2022-09-21T12:36:43.114Z,102919.44
2022-09-21T12:39:37.217Z,102919.38
2022-09-21T12:42:22.899Z,102917.22
2022-09-21T12:44:55.790Z,102916.09
2022-09-21T12:47:28.565Z,102907.22
2022-09-21T12:50:02.738Z,102903.66
2022-09-21T12:52:29.616Z,102910.38
2022-09-21T12:55:24.182Z,102910.03
2022-09-21T12:58:22.165Z,102898.13
2022-09-21T13:00:57.803Z,102893.25
2022-09-21T13:03:37.823Z,102903.16
2022-09-21T13:06:25.270Z,102899.09
2022-09-21T13:08:52.782Z,102894.22
2022-09-21T13:11:21.722Z,102886.41
2022-09-21T13:13:52.967Z,102890.63
2022-09-21T13:16:26.303Z,102886.28
2022-09-21T13:19:00.552Z,102888.94
2022-09-21T13:21:33.066Z,102887.00
2022-09-21T13:24:24.160Z,102887.75
2022-09-21T13:26:57.098Z,102885.22
2022-09-21T13:29:23.726Z,102883.78
2022-09-21T13:32:11.934Z,102882.06
2022-09-21T13:34:39.597Z,102871.22
2022-09-21T13:37:18.658Z,102875.94
2022-09-21T13:39:45.380Z,102882.88
2022-09-21T13:42:31.302Z,102874.75
2022-09-21T13:44:59.989Z,102869.88
2022-09-21T13:47:32.369Z,102875.25
2022-09-21T13:50:10.364Z,102869.88
2022-09-21T13:52:44.776Z,102871.97
2022-09-21T13:55:33.870Z,102864.91
2022-09-21T13:58:05.923Z,102867.81
2022-09-21T14:00:38.560Z,102877.22
2022-09-21T14:03:23.814Z,102866.06
2022-09-21T14:06:00.998Z,102869.44
2022-09-21T14:08:35.783Z,102859.16
2022-09-21T14:11:08.108Z,102859.88
2022-09-21T14:13:38.478Z,102854.09
2022-09-21T14:16:30.626Z,102856.00
2022-09-21T14:18:57.488Z,102861.91
2022-09-21T14:21:24.358Z,102863.22
2022-09-21T14:24:19.289Z,102855.56
2022-09-21T14:26:45.663Z,102859.84
2022-09-21T14:29:36.944Z,102855.47
2022-09-21T14:32:08.088Z,102853.28
2022-09-21T14:34:39.543Z,102851.38
2022-09-21T14:37:19.707Z,102849.78
2022-09-21T14:39:51.098Z,102849.28
2022-09-21T14:42:23.235Z,102852.56
2022-09-21T14:44:52.756Z,102847.97
2022-09-21T14:47:28.715Z,102842.28
2022-09-21T14:50:18.497Z,102842.28
2022-09-21T14:53:24.069Z,102834.00
2022-09-21T14:55:56.443Z,102827.88
2022-09-21T14:58:32.214Z,102834.72
2022-09-21T15:01:22.178Z,102831.63
2022-09-21T15:04:01.651Z,102824.19
2022-09-21T15:06:55.162Z,102828.84
2022-09-21T15:09:55.394Z,102826.22
2022-09-21T15:12:32.188Z,102823.91
2022-09-21T15:15:40.593Z,102822.16
2022-09-21T15:18:20.554Z,102823.91
2022-09-21T15:21:03.913Z,102815.91
2022-09-21T15:23:39.927Z,102812.97
2022-09-21T15:26:22.388Z,102817.66
2022-09-21T15:29:13.987Z,102808.84
2022-09-21T15:31:42.016Z,102814.59
2022-09-21T15:34:13.585Z,102809.25
2022-09-21T15:36:42.165Z,102816.81
2022-09-21T15:39:31.374Z,102811.72
2022-09-21T15:42:09.997Z,102811.53
2022-09-21T15:44:39.503Z,102810.78
2022-09-21T15:47:12.742Z,102805.66
2022-09-21T15:49:40.097Z,102809.19
2022-09-21T15:52:09.258Z,102799.22
2022-09-21T15:54:41.082Z,102797.31
2022-09-21T15:57:26.214Z,102797.03
2022-09-21T15:59:54.047Z,102801.63
2022-09-21T16:02:26.291Z,102801.91
2022-09-21T16:04:53.323Z,102789.25
2022-09-21T16:07:27.031Z,102791.69
2022-09-21T16:09:53.760Z,102788.50
2022-09-21T16:12:26.353Z,102786.69
2022-09-21T16:14:54.163Z,102787.81
2022-09-21T16:17:30.088Z,102786.25
2022-09-21T16:19:56.840Z,102801.09
2022-09-21T16:22:29.691Z,102798.16
2022-09-21T16:24:59.729Z,102796.34
2022-09-21T16:27:29.475Z,102792.09
2022-09-21T16:29:58.052Z,102794.56
2022-09-21T16:32:27.590Z,102788.97
2022-09-21T16:35:22.085Z,102796.53
2022-09-21T16:37:49.055Z,102792.22
2022-09-21T16:40:15.613Z,102795.19
2022-09-21T16:42:43.188Z,102795.50
2022-09-21T16:45:23.174Z,102794.97
2022-09-21T16:47:50.783Z,102795.25
2022-09-21T16:50:19.014Z,102800.91
2022-09-21T16:52:48.552Z,102803.06
2022-09-21T16:55:17.975Z,102796.38
2022-09-21T16:57:45.995Z,102799.66
2022-09-21T17:00:14.149Z,102801.81
2022-09-21T17:02:42.689Z,102805.06
2022-09-21T17:05:09.929Z,102809.41
2022-09-21T17:07:36.904Z,102803.28
2022-09-21T17:10:13.038Z,102796.59
2022-09-21T17:12:42.957Z,102799.03
2022-09-21T17:15:13.227Z,102797.50
2022-09-21T17:17:39.924Z,102798.63
2022-09-21T17:20:25.813Z,102789.28
2022-09-21T17:22:52.450Z,102794.44
2022-09-21T17:25:18.985Z,102793.41
2022-09-21T17:27:46.071Z,102793.19
2022-09-21T17:30:14.104Z,102802.09
2022-09-21T17:32:42.779Z,102797.28
2022-09-21T17:35:31.336Z,102802.16
2022-09-21T17:37:58.835Z,102796.59
2022-09-21T17:40:27.246Z,102797.97
2022-09-21T17:43:04.513Z,102794.81
2022-09-21T17:45:37.598Z,102796.19
2022-09-21T17:48:04.897Z,102796.75
2022-09-21T17:50:32.038Z,102791.44
2022-09-21T17:53:19.014Z,102796.78
2022-09-21T17:55:56.620Z,102797.09
2022-09-21T17:58:57.955Z,102796.56
2022-09-21T18:01:32.030Z,102797.97
2022-09-21T18:04:00.179Z,102798.22
2022-09-21T18:06:27.227Z,102795.81
2022-09-21T18:08:54.281Z,102799.03
2022-09-21T18:11:53.103Z,102798.81
2022-09-21T18:14:44.353Z,102807.94
2022-09-21T18:17:39.565Z,102806.88
2022-09-21T18:20:22.104Z,102815.47
2022-09-21T18:23:24.958Z,102806.09
2022-09-21T18:25:55.245Z,102810.63
2022-09-21T18:28:45.885Z,102807.97
2022-09-21T18:31:30.998Z,102806.09
2022-09-21T18:34:35.290Z,102808.78
2022-09-21T18:37:21.651Z,102810.13
2022-09-21T18:40:14.802Z,102807.97
2022-09-21T18:43:05.032Z,102810.63
2022-09-21T18:45:43.691Z,102816.25
2022-09-21T18:48:30.476Z,102803.66
2022-09-21T18:51:02.657Z,102820.47
2022-09-21T18:53:49.166Z,102818.06
2022-09-21T18:56:16.166Z,102812.41
2022-09-21T18:58:43.197Z,102824.97
2022-09-21T19:01:13.792Z,102821.75
2022-09-21T19:03:42.927Z,102821.72
2022-09-21T19:06:27.629Z,102831.34
2022-09-21T19:09:21.613Z,102823.31
2022-09-21T19:11:57.455Z,102830.78
2022-09-21T19:14:40.693Z,102831.56
2022-09-21T19:17:26.785Z,102839.03
2022-09-21T19:20:15.376Z,102839.00
2022-09-21T19:23:06.458Z,102832.56
2022-09-21T19:25:49.528Z,102837.31
2022-09-21T19:28:29.028Z,102833.00
2022-09-21T19:31:02.126Z,102836.72
2022-09-21T19:33:49.342Z,102830.03
2022-09-21T19:36:16.955Z,102829.72
2022-09-21T19:38:44.904Z,102840.41
2022-09-21T19:41:35.244Z,102830.75
2022-09-21T19:44:18.092Z,102839.78
2022-09-21T19:46:58.493Z,102831.47
2022-09-21T19:49:36.004Z,102839.47
2022-09-21T19:52:05.197Z,102837.00
2022-09-21T19:54:50.751Z,102834.50
2022-09-21T19:57:40.338Z,102838.19
2022-09-21T20:00:11.639Z,102835.50
2022-09-21T20:02:51.823Z,102836.25
2022-09-21T20:05:24.183Z,102834.09
2022-09-21T20:08:16.544Z,102837.31
2022-09-21T20:10:45.674Z,102838.94
2022-09-21T20:13:31.293Z,102842.66
2022-09-21T20:16:31.297Z,102836.72
2022-09-21T20:19:30.254Z,102834.50
2022-09-21T20:22:06.135Z,102839.00
2022-09-21T20:24:54.369Z,102831.19
2022-09-21T20:27:34.799Z,102832.19
2022-09-21T20:30:02.696Z,102841.44
2022-09-21T20:32:33.303Z,102837.94
2022-09-21T20:34:59.835Z,102847.78
2022-09-21T20:37:27.212Z,102835.75
2022-09-21T20:39:54.554Z,102832.22
2022-09-21T20:42:23.639Z,102834.34
2022-09-21T20:44:53.909Z,102825.47
2022-09-21T20:47:21.231Z,102825.41
2022-09-21T20:49:48.554Z,102828.34
2022-09-21T20:52:18.370Z,102836.03
2022-09-21T20:54:49.028Z,102837.28
2022-09-21T20:57:17.561Z,102836.94
2022-09-21T20:59:44.606Z,102832.38
2022-09-21T21:02:12.763Z,102825.91
2022-09-21T21:04:40.059Z,102826.09
2022-09-21T21:07:07.069Z,102831.69
2022-09-21T21:09:33.752Z,102825.78
2022-09-21T21:12:00.348Z,102828.16
2022-09-21T21:14:26.838Z,102827.53
2022-09-21T21:16:53.537Z,102817.34
2022-09-21T21:19:20.552Z,102821.78
2022-09-21T21:21:47.165Z,102820.09
2022-09-21T21:24:32.130Z,102822.44
2022-09-21T21:27:02.093Z,102827.72
2022-09-21T21:29:29.949Z,102827.63
2022-09-21T21:31:56.516Z,102828.13
2022-09-21T21:34:23.268Z,102831.53
2022-09-21T21:36:49.824Z,102825.53
2022-09-21T21:39:16.398Z,102828.94
2022-09-21T21:41:43.526Z,102826.28
2022-09-21T21:44:11.631Z,102825.47
2022-09-21T21:46:38.176Z,102824.34
2022-09-21T21:49:05.052Z,102826.44
2022-09-21T21:51:31.908Z,102827.47
2022-09-21T21:53:58.426Z,102820.78
2022-09-21T21:56:26.527Z,102825.56
2022-09-21T21:58:54.485Z,102818.28
2022-09-21T22:01:26.425Z,102818.75
2022-09-21T22:04:00.594Z,102821.13
2022-09-21T22:06:28.708Z,102817.06
2022-09-21T22:08:56.644Z,102810.38
2022-09-21T22:11:25.144Z,102815.97
2022-09-21T22:13:53.873Z,102812.16
2022-09-21T22:16:24.790Z,102810.53
2022-09-21T22:18:52.472Z,102817.97
2022-09-21T22:21:21.695Z,102814.38
2022-09-21T22:23:54.124Z,102814.31
2022-09-21T22:26:20.912Z,102810.75
2022-09-21T22:28:50.118Z,102816.81
2022-09-21T22:31:20.987Z,102813.56
2022-09-21T22:33:48.928Z,102820.19
2022-09-21T22:36:21.098Z,102820.66
2022-09-21T22:38:49.469Z,102819.50
2022-09-21T22:41:18.140Z,102821.03
2022-09-21T22:43:46.361Z,102821.41
2022-09-21T22:46:13.844Z,102816.34
2022-09-21T22:48:40.392Z,102813.13
2022-09-21T22:51:07.073Z,102818.91
2022-09-21T22:53:33.953Z,102814.88
2022-09-21T22:56:05.112Z,102811.41
2022-09-21T22:58:36.671Z,102806.88
2022-09-21T23:01:25.468Z,102815.34
2022-09-21T23:03:59.337Z,102812.59
2022-09-21T23:06:29.166Z,102806.47
2022-09-21T23:08:57.406Z,102804.84
2022-09-21T23:11:37.354Z,102800.56
2022-09-21T23:14:04.332Z,102811.22
2022-09-21T23:16:31.124Z,102805.91
2022-09-21T23:18:58.236Z,102803.22
2022-09-21T23:21:27.607Z,102803.22
2022-09-21T23:23:55.775Z,102801.59
2022-09-21T23:26:24.288Z,102801.59
2022-09-21T23:28:53.411Z,102802.44
2022-09-21T23:31:20.621Z,102804.25
2022-09-21T23:33:53.981Z,102802.09
2022-09-21T23:36:23.580Z,102801.28
2022-09-21T23:38:50.316Z,102799.31
2022-09-21T23:41:21.740Z,102799.31
2022-09-21T23:43:48.653Z,102798.72
2022-09-21T23:46:18.696Z,102796.53
2022-09-21T23:48:46.663Z,102800.72
2022-09-21T23:51:13.974Z,102798.06
2022-09-21T23:53:40.992Z,102804.09
2022-09-21T23:56:13.972Z,102797.84
2022-09-21T23:58:40.835Z,102810.94
